Time;durP1;ratioP1;P1;durP2;ratioP2;P2;SDS_P1;SDS_P2;PMS_P1;PMS_P2;Temp;Humidity;BMP_temperature;BMP_pressure;BME280_temperature;BME280_humidity;BME280_pressure;Samples;Min_cycle;Max_cycle;Signal;HPM_P1;HPM_P2
2022/09/06 00:00:03;;;;;;;5.07;3.67;;;;;;;12.82;100.00;93783.53;5089727;28;20458;-71
2022/09/06 00:02:32;;;;;;;7.10;3.92;;;;;;;12.78;100.00;93784.19;5098880;28;20518;-71
2022/09/06 00:04:59;;;;;;;6.15;3.97;;;;;;;12.77;100.00;93780.78;5089623;28;20218;-71
2022/09/06 00:07:26;;;;;;;5.20;3.50;;;;;;;12.39;100.00;93732.66;5089332;28;20102;-70
2022/09/06 00:09:53;;;;;;;5.97;3.85;;;;;;;12.66;100.00;93779.69;5089529;28;20052;-70
2022/09/06 00:12:21;;;;;;;4.93;3.70;;;;;;;12.62;100.00;93780.28;5089617;28;20051;-70
2022/09/06 00:14:48;;;;;;;6.03;4.10;;;;;;;12.48;100.00;93777.00;5089676;28;20056;-70
2022/09/06 00:17:14;;;;;;;7.07;4.00;;;;;;;12.35;100.00;93777.91;5094399;28;20533;-71
2022/09/06 00:19:41;;;;;;;7.43;4.53;;;;;;;12.32;100.00;93768.00;5109582;28;20047;-71
2022/09/06 00:22:08;;;;;;;7.10;4.40;;;;;;;12.34;100.00;93779.66;5107590;28;20160;-70
2022/09/06 00:24:36;;;;;;;5.85;4.10;;;;;;;12.41;100.00;93777.06;5107909;28;20043;-70
2022/09/06 00:27:03;;;;;;;5.57;4.38;;;;;;;12.38;100.00;93759.44;5108140;28;20131;-70
2022/09/06 00:29:31;;;;;;;6.00;4.22;;;;;;;12.50;100.00;93764.72;5101614;28;20043;-70
2022/09/06 00:31:59;;;;;;;5.32;3.97;;;;;;;12.62;100.00;93775.94;5108909;28;20055;-70
2022/09/06 00:34:26;;;;;;;6.35;4.07;;;;;;;12.60;100.00;93772.00;5109318;28;20380;-70
2022/09/06 00:36:52;;;;;;;6.28;4.18;;;;;;;12.51;100.00;93759.34;5109428;28;20047;-70
2022/09/06 00:39:19;;;;;;;5.40;4.15;;;;;;;12.58;100.00;93769.63;5108815;28;20043;-71
2022/09/06 00:41:46;;;;;;;9.48;4.18;;;;;;;12.52;100.00;93771.25;5107526;28;20043;-72
2022/09/06 00:44:13;;;;;;;5.68;4.00;;;;;;;12.48;100.00;93766.69;5108351;28;20039;-72
2022/09/06 00:46:45;;;;;;;5.47;4.38;;;;;;;12.35;100.00;93752.91;5107850;28;20054;-72
2022/09/06 00:49:22;;;;;;;6.18;4.55;;;;;;;12.45;100.00;93770.47;5106722;28;20052;-71
2022/09/06 00:51:51;;;;;;;9.20;4.20;;;;;;;12.35;100.00;93763.22;5108887;28;20093;-72
2022/09/06 00:54:18;;;;;;;6.53;4.07;;;;;;;12.26;100.00;93762.66;5109319;28;20051;-71
2022/09/06 00:56:46;;;;;;;5.63;4.13;;;;;;;12.13;100.00;93757.59;5108939;28;20582;-72
2022/09/06 00:59:14;;;;;;;4.95;3.70;;;;;;;12.15;100.00;93755.59;5109384;28;20040;-71
2022/09/06 01:01:42;;;;;;;5.97;4.15;;;;;;;12.16;100.00;93762.31;5108756;28;20408;-71
2022/09/06 01:04:10;;;;;;;5.90;4.47;;;;;;;12.20;100.00;93766.06;5108720;28;20043;-71
2022/09/06 01:06:48;;;;;;;6.65;3.88;;;;;;;12.22;100.00;93768.44;5108837;28;20043;-71
2022/09/06 01:09:26;;;;;;;6.35;4.07;;;;;;;12.21;100.00;93764.28;5109220;28;20119;-71
2022/09/06 01:12:19;;;;;;;5.32;4.10;;;;;;;12.20;100.00;93763.50;5108587;28;20051;-71
2022/09/06 01:15:04;;;;;;;5.00;3.78;;;;;;;12.20;100.00;93767.84;5108898;28;20050;-72
2022/09/06 01:17:44;;;;;;;6.55;4.13;;;;;;;12.27;100.00;93766.03;5108989;28;20484;-72
2022/09/06 01:20:40;;;;;;;5.30;3.85;;;;;;;12.23;100.00;93775.16;5108651;28;20043;-72
2022/09/06 01:23:45;;;;;;;6.45;3.83;;;;;;;12.22;100.00;93776.16;5108631;28;20126;-70
2022/09/06 01:26:28;;;;;;;6.10;4.50;;;;;;;12.21;100.00;93777.94;5103611;28;20036;-70
2022/09/06 01:28:58;;;;;;;5.32;3.88;;;;;;;12.21;100.00;93777.16;5108724;28;20051;-70
2022/09/06 01:31:34;;;;;;;6.82;3.90;;;;;;;12.24;100.00;93779.31;5108755;28;20051;-70
2022/09/06 01:34:16;;;;;;;6.45;4.68;;;;;;;12.21;100.00;93777.94;5108433;28;20059;-70
2022/09/06 01:36:48;;;;;;;5.90;4.20;;;;;;;12.14;100.00;93759.94;5110585;28;20437;-70
2022/09/06 01:39:23;;;;;;;7.47;3.95;;;;;;;12.24;100.00;93767.25;5112378;28;20047;-70
2022/09/06 01:41:51;;;;;;;5.63;4.00;;;;;;;12.21;100.00;93772.00;5112196;27;20059;-70
2022/09/06 01:44:20;;;;;;;6.05;4.05;;;;;;;12.23;100.00;93764.88;5112144;28;20589;-71
2022/09/06 01:46:54;;;;;;;5.75;4.28;;;;;;;12.25;100.00;93768.00;5112169;28;20553;-71
2022/09/06 01:49:33;;;;;;;4.97;4.05;;;;;;;12.23;100.00;93759.72;5111748;28;20055;-71
2022/09/06 01:52:12;;;;;;;5.38;4.25;;;;;;;12.20;100.00;93752.38;5112144;28;20055;-71
2022/09/06 01:55:02;;;;;;;5.32;4.00;;;;;;;12.22;100.00;93748.59;5111850;28;20051;-71
2022/09/06 01:57:48;;;;;;;5.32;4.18;;;;;;;12.24;100.00;93754.34;5111902;28;20039;-74
2022/09/06 02:00:18;;;;;;;4.75;4.00;;;;;;;12.19;100.00;93753.38;5112240;28;20047;-71
2022/09/06 02:02:59;;;;;;;5.25;4.25;;;;;;;12.18;100.00;93760.34;5111957;28;20388;-71
2022/09/06 02:05:31;;;;;;;6.40;4.00;;;;;;;12.08;100.00;93747.09;5111832;28;20517;-71
2022/09/06 02:08:01;;;;;;;6.18;4.28;;;;;;;12.11;100.00;93760.34;5112069;28;20047;-70
2022/09/06 02:10:33;;;;;;;5.72;3.83;;;;;;;12.09;100.00;93748.69;5111936;28;20039;-70
2022/09/06 02:13:02;;;;;;;7.00;4.70;;;;;;;12.05;100.00;93752.66;5111788;28;20457;-71
2022/09/06 02:15:34;;;;;;;6.00;3.83;;;;;;;12.01;100.00;93750.47;5111896;28;20441;-71
2022/09/06 02:18:06;;;;;;;6.15;3.92;;;;;;;11.97;100.00;93757.03;5111661;28;20040;-71
2022/09/06 02:20:38;;;;;;;5.60;3.80;;;;;;;11.95;100.00;93753.06;5111789;28;20571;-72
2022/09/06 02:23:08;;;;;;;6.28;4.63;;;;;;;11.89;100.00;93754.66;5111687;28;20157;-71
2022/09/06 02:25:38;;;;;;;7.35;4.05;;;;;;;11.86;100.00;93752.50;5111466;28;20402;-71
2022/09/06 02:28:07;;;;;;;5.57;4.00;;;;;;;11.81;100.00;93758.25;5111287;28;20560;-71
2022/09/06 02:30:39;;;;;;;5.00;4.18;;;;;;;11.79;100.00;93762.06;5111177;28;20069;-70
2022/09/06 02:33:11;;;;;;;5.65;4.32;;;;;;;11.71;100.00;93763.06;5111504;28;20054;-70
2022/09/06 02:35:43;;;;;;;8.00;4.70;;;;;;;11.67;100.00;93767.78;5111467;28;20047;-71
2022/09/06 02:38:10;;;;;;;5.18;4.50;;;;;;;11.62;100.00;93762.50;5111226;28;20035;-71
2022/09/06 02:40:38;;;;;;;5.85;4.75;;;;;;;11.49;100.00;93751.22;5111106;28;20043;-71
2022/09/06 02:43:04;;;;;;;6.40;5.00;;;;;;;11.35;100.00;93735.03;5111316;28;20097;-71
2022/09/06 02:45:31;;;;;;;7.38;4.38;;;;;;;11.55;100.00;93774.56;5111372;28;20051;-71
2022/09/06 02:47:59;;;;;;;5.93;4.45;;;;;;;11.56;100.00;93776.13;5111290;28;20101;-71
2022/09/06 02:50:26;;;;;;;7.72;5.53;;;;;;;11.54;100.00;93773.00;5110672;28;20092;-71
2022/09/06 02:53:03;;;;;;;6.95;4.53;;;;;;;11.58;100.00;93764.66;5110926;28;20093;-71
2022/09/06 02:55:29;;;;;;;7.25;4.68;;;;;;;11.56;100.00;93764.06;5110835;28;20049;-71
2022/09/06 02:57:57;;;;;;;10.63;5.18;;;;;;;11.60;100.00;93761.88;5110717;28;20092;-71
2022/09/06 03:00:23;;;;;;;8.32;4.75;;;;;;;11.32;100.00;93729.50;5110814;28;20043;-71
2022/09/06 03:02:50;;;;;;;7.68;4.43;;;;;;;11.54;100.00;93760.94;5110983;28;20056;-71
2022/09/06 03:05:19;;;;;;;7.22;4.55;;;;;;;11.49;100.00;93763.31;5111025;28;20040;-71
2022/09/06 03:07:46;;;;;;;6.47;4.75;;;;;;;11.50;100.00;93757.16;5110823;28;20067;-71
2022/09/06 03:10:12;;;;;;;7.10;4.88;;;;;;;11.26;100.00;93727.72;5110906;28;20437;-71
2022/09/06 03:12:39;;;;;;;7.68;5.10;;;;;;;11.47;100.00;93753.22;5110389;28;20491;-71
2022/09/06 03:15:09;;;;;;;5.35;4.47;;;;;;;11.50;100.00;93762.31;5110328;28;20104;-71
2022/09/06 03:17:36;;;;;;;4.78;4.25;;;;;;;11.40;100.00;93755.03;5110716;28;20040;-71
2022/09/06 03:20:03;;;;;;;8.23;4.75;;;;;;;11.46;100.00;93769.66;5110646;28;20039;-72
2022/09/06 03:22:32;;;;;;;8.27;5.57;;;;;;;11.41;100.00;93763.50;5110618;28;20126;-72
2022/09/06 03:24:58;;;;;;;7.55;5.00;;;;;;;11.36;100.00;93761.53;5110083;28;20576;-72
2022/09/06 03:27:25;;;;;;;7.50;4.90;;;;;;;11.30;100.00;93768.25;5110154;28;20039;-72
2022/09/06 03:29:52;;;;;;;6.32;5.10;;;;;;;11.32;100.00;93768.88;5110342;28;20092;-72
2022/09/06 03:32:19;;;;;;;8.70;4.72;;;;;;;11.26;100.00;93766.31;5110101;28;20112;-72
2022/09/06 03:34:45;;;;;;;5.78;4.32;;;;;;;11.17;100.00;93774.25;5110245;28;20044;-72
2022/09/06 03:37:12;;;;;;;7.93;5.13;;;;;;;11.16;100.00;93769.28;5109994;28;20525;-72
2022/09/06 03:39:41;;;;;;;5.82;4.80;;;;;;;11.14;100.00;93772.06;5109798;28;20051;-72
2022/09/06 03:42:08;;;;;;;5.60;4.30;;;;;;;11.11;100.00;93775.00;5110165;28;20042;-72
2022/09/06 03:44:34;;;;;;;6.05;4.72;;;;;;;11.17;100.00;93765.72;5110171;28;20047;-72
2022/09/06 03:47:01;;;;;;;8.77;4.90;;;;;;;11.20;100.00;93768.69;5109562;28;20044;-72
2022/09/06 03:49:28;;;;;;;5.53;4.50;;;;;;;11.14;100.00;93761.75;5109492;28;20105;-72
2022/09/06 03:51:55;;;;;;;7.55;5.25;;;;;;;11.17;100.00;93770.88;5110026;28;20043;-72
2022/09/06 03:54:23;;;;;;;6.90;4.93;;;;;;;11.05;100.00;93761.19;5110056;28;20051;-72
2022/09/06 03:56:51;;;;;;;9.05;4.85;;;;;;;11.15;100.00;93771.06;5109892;28;20050;-71
2022/09/06 03:59:18;;;;;;;8.20;4.95;;;;;;;11.20;100.00;93781.53;5109065;28;20616;-72
2022/09/06 04:01:44;;;;;;;7.80;4.43;;;;;;;11.02;100.00;93758.22;5109459;28;20040;-72
2022/09/06 04:04:11;;;;;;;8.65;4.75;;;;;;;11.08;100.00;93781.34;5109869;28;20051;-72
2022/09/06 04:06:38;;;;;;;9.43;5.68;;;;;;;11.03;100.00;93780.34;5109804;28;20131;-72
2022/09/06 04:09:05;;;;;;;8.90;5.65;;;;;;;11.02;100.00;93777.00;5109619;28;20113;-72
2022/09/06 04:11:31;;;;;;;8.40;5.47;;;;;;;11.04;100.00;93780.16;5108584;28;20495;-72
2022/09/06 04:14:00;;;;;;;7.90;5.90;;;;;;;11.07;100.00;93782.31;5097121;28;20836;-71
2022/09/06 04:16:26;;;;;;;8.68;5.88;;;;;;;11.12;100.00;93783.53;5096553;28;20051;-72
2022/09/06 04:18:53;;;;;;;8.20;5.90;;;;;;;11.13;100.00;93779.94;5089345;28;20093;-72
2022/09/06 04:21:20;;;;;;;9.65;5.68;;;;;;;11.17;100.00;93781.94;5089576;28;20044;-72
2022/09/06 04:23:46;;;;;;;8.70;5.43;;;;;;;11.18;100.00;93778.38;5089288;28;20048;-72
2022/09/06 04:26:13;;;;;;;6.85;5.43;;;;;;;11.19;100.00;93785.09;5089686;28;20097;-72
2022/09/06 04:28:40;;;;;;;13.13;6.20;;;;;;;11.23;100.00;93780.34;5088996;28;20044;-71
2022/09/06 04:31:08;;;;;;;12.93;6.40;;;;;;;11.25;100.00;93780.94;5089148;28;20482;-71
2022/09/06 04:33:37;;;;;;;7.50;5.45;;;;;;;11.27;100.00;93776.41;5103036;28;20048;-71
2022/09/06 04:36:05;;;;;;;9.60;5.97;;;;;;;11.29;100.00;93782.13;5089984;28;20047;-71
2022/09/06 04:38:36;;;;;;;10.38;6.28;;;;;;;11.32;100.00;93780.94;5089475;28;20040;-71
2022/09/06 04:41:03;;;;;;;9.68;5.90;;;;;;;11.28;100.00;93767.69;5089291;28;20051;-72
2022/09/06 04:43:29;;;;;;;7.72;5.97;;;;;;;11.38;100.00;93777.56;5089471;28;20366;-71
2022/09/06 04:45:56;;;;;;;8.02;6.15;;;;;;;11.43;100.00;93784.69;5089288;28;20059;-72
2022/09/06 04:48:24;;;;;;;7.35;5.60;;;;;;;11.38;100.00;93781.94;5088995;28;20173;-71
2022/09/06 04:50:51;;;;;;;7.60;5.85;;;;;;;11.46;100.00;93784.28;5086730;28;20117;-72
2022/09/06 04:53:18;;;;;;;8.25;5.65;;;;;;;11.47;100.00;93785.84;5087087;28;20082;-71
2022/09/06 04:55:45;;;;;;;10.23;5.90;;;;;;;11.51;100.00;93781.91;5088420;28;20097;-71
2022/09/06 04:58:11;;;;;;;11.00;6.10;;;;;;;11.57;100.00;93777.75;5089002;28;20060;-71
2022/09/06 05:00:40;;;;;;;9.35;5.38;;;;;;;11.60;100.00;93783.28;5088938;28;20074;-71
2022/09/06 05:03:08;;;;;;;8.23;5.82;;;;;;;11.61;100.00;93779.69;5088924;28;20134;-78
2022/09/06 05:05:36;;;;;;;12.25;6.55;;;;;;;11.66;100.00;93779.09;5088744;28;20127;-71
2022/09/06 05:08:03;;;;;;;9.50;5.72;;;;;;;11.75;100.00;93783.03;5089284;28;20055;-71
2022/09/06 05:10:30;;;;;;;8.38;5.93;;;;;;;11.79;100.00;93780.06;5088868;28;20438;-71
2022/09/06 05:12:57;;;;;;;11.35;6.07;;;;;;;11.84;100.00;93781.03;5092841;28;20047;-71
2022/09/06 05:15:24;;;;;;;10.25;6.18;;;;;;;11.92;100.00;93784.34;5093004;28;20052;-71
2022/09/06 05:17:51;;;;;;;8.40;5.22;;;;;;;11.98;100.00;93781.78;5092944;28;20043;-71
2022/09/06 05:20:18;;;;;;;10.95;6.72;;;;;;;12.03;100.00;93771.66;5092777;28;20537;-71
2022/09/06 05:22:52;;;;;;;9.48;6.50;;;;;;;12.13;100.00;93775.63;5092615;28;20040;-71
2022/09/06 05:25:19;;;;;;;10.57;6.90;;;;;;;12.19;100.00;93768.84;5092624;28;20534;-71
2022/09/06 05:27:45;;;;;;;10.93;6.28;;;;;;;12.33;100.00;93777.28;5092601;28;20504;-72
2022/09/06 05:30:13;;;;;;;9.05;5.32;;;;;;;12.34;100.00;93766.78;5092564;28;20044;-71
2022/09/06 05:32:40;;;;;;;9.75;5.70;;;;;;;12.48;100.00;93774.44;5098299;28;20100;-71
2022/09/06 05:35:08;;;;;;;8.90;6.32;;;;;;;12.53;100.00;93764.28;5100908;28;20508;-71
2022/09/06 05:37:34;;;;;;;9.60;6.82;;;;;;;12.64;100.00;93763.63;5092347;28;20484;-72
2022/09/06 05:40:03;;;;;;;12.18;7.72;;;;;;;12.76;100.00;93768.91;5089746;28;20110;-71
2022/09/06 05:42:30;;;;;;;10.48;7.35;;;;;;;12.88;100.00;93774.19;5090734;28;20062;-72
2022/09/06 05:44:57;;;;;;;11.10;6.45;;;;;;;13.01;100.00;93772.50;5092196;28;20113;-72
2022/09/06 05:47:23;;;;;;;10.20;6.57;;;;;;;13.14;100.00;93771.63;5092511;28;20051;-72
2022/09/06 05:49:50;;;;;;;11.05;6.90;;;;;;;13.27;100.00;93770.69;5092343;28;20064;-72
2022/09/06 05:52:18;;;;;;;13.60;9.70;;;;;;;13.39;100.00;93763.84;5092070;28;20062;-72
2022/09/06 05:54:45;;;;;;;18.48;10.95;;;;;;;13.51;100.00;93761.38;5092063;28;20046;-72
2022/09/06 05:57:13;;;;;;;10.45;8.57;;;;;;;13.61;100.00;93768.63;5092057;28;20086;-72
2022/09/06 05:59:40;;;;;;;16.27;10.95;;;;;;;13.56;100.00;93753.78;5092036;28;20446;-72
2022/09/06 06:02:06;;;;;;;13.88;8.60;;;;;;;13.58;100.00;93753.56;5091924;28;20495;-72
2022/09/06 06:04:33;;;;;;;12.57;9.45;;;;;;;13.63;100.00;93749.34;5091822;28;20044;-72
2022/09/06 06:07:00;;;;;;;9.05;7.47;;;;;;;13.78;100.00;93745.59;5091858;28;20044;-72
2022/09/06 06:09:27;;;;;;;9.18;6.82;;;;;;;13.74;100.00;93747.03;5092086;28;20392;-72
2022/09/06 06:11:54;;;;;;;7.32;6.43;;;;;;;13.99;100.00;93741.00;5091585;28;20492;-72
2022/09/06 06:14:22;;;;;;;7.78;6.25;;;;;;;14.19;100.00;93745.13;5091667;28;20097;-72
2022/09/06 06:16:48;;;;;;;10.32;7.05;;;;;;;14.43;100.00;93749.38;5091872;28;20047;-72
2022/09/06 06:19:15;;;;;;;9.27;6.45;;;;;;;14.73;100.00;93747.78;5091874;28;20438;-72
2022/09/06 06:21:42;;;;;;;10.18;6.63;;;;;;;15.00;100.00;93749.19;5102477;28;20522;-73
2022/09/06 06:24:09;;;;;;;7.32;5.60;;;;;;;15.23;100.00;93753.59;5090183;28;20522;-73
2022/09/06 06:26:36;;;;;;;8.05;5.95;;;;;;;15.53;100.00;93759.66;5091675;28;20450;-73
2022/09/06 06:29:04;;;;;;;8.98;5.47;;;;;;;15.60;100.00;93757.75;5091435;28;20055;-73
2022/09/06 06:31:33;;;;;;;6.95;4.93;;;;;;;15.75;100.00;93765.81;5110158;28;20071;-73
2022/09/06 06:34:02;;;;;;;7.30;5.60;;;;;;;15.81;100.00;93768.50;5103941;28;20495;-73
2022/09/06 06:36:30;;;;;;;9.45;4.75;;;;;;;15.97;100.00;93757.47;5091857;28;20048;-73
2022/09/06 06:38:58;;;;;;;7.82;5.10;;;;;;;16.10;100.00;93766.78;5091413;28;20040;-73
2022/09/06 06:41:26;;;;;;;6.53;4.50;;;;;;;16.25;100.00;93763.69;5091283;28;20040;-73
2022/09/06 06:43:54;;;;;;;6.80;5.47;;;;;;;16.45;100.00;93766.88;5091269;28;20044;-73
2022/09/06 06:46:22;;;;;;;7.13;4.88;;;;;;;16.49;100.00;93768.81;5091037;28;20040;-73
2022/09/06 06:48:50;;;;;;;5.90;4.90;;;;;;;16.62;100.00;93764.34;5091307;28;20040;-73
2022/09/06 06:51:19;;;;;;;8.23;5.30;;;;;;;16.67;100.00;93764.44;5091186;28;20130;-73
2022/09/06 06:53:47;;;;;;;8.82;5.75;;;;;;;16.79;100.00;93766.94;5091063;28;20044;-73
2022/09/06 06:56:16;;;;;;;10.63;5.97;;;;;;;16.77;100.00;93763.81;5090790;28;20074;-73
2022/09/06 06:58:43;;;;;;;7.60;5.00;;;;;;;17.03;100.00;93765.03;5090646;28;20514;-72
2022/09/06 07:01:10;;;;;;;6.78;4.93;;;;;;;17.28;100.00;93755.28;5090842;28;20113;-73
2022/09/06 07:03:37;;;;;;;6.32;4.70;;;;;;;17.63;100.00;93770.56;5091020;28;20047;-73
2022/09/06 07:06:06;;;;;;;7.63;5.00;;;;;;;17.92;99.47;93776.63;5090832;28;20438;-73
2022/09/06 07:08:33;;;;;;;11.02;5.70;;;;;;;18.31;100.00;93773.97;5090994;28;20041;-73
2022/09/06 07:11:00;;;;;;;8.07;5.10;;;;;;;18.63;100.00;93775.88;5090734;28;20101;-74
2022/09/06 07:13:27;;;;;;;10.23;5.15;;;;;;;18.94;97.90;93776.13;5096499;28;20485;-73
2022/09/06 07:16:10;;;;;;;6.78;4.75;;;;;;;18.63;94.71;93786.28;5098846;28;20051;-73
2022/09/06 07:18:40;;;;;;;7.90;4.07;;;;;;;18.27;95.88;93789.28;5090736;28;20048;-73
2022/09/06 07:21:10;;;;;;;6.95;4.68;;;;;;;18.43;95.18;93784.25;5090724;28;20044;-73
2022/09/06 07:23:36;;;;;;;7.90;4.70;;;;;;;18.61;96.78;93774.53;5090349;28;20131;-72
2022/09/06 07:26:03;;;;;;;7.50;4.45;;;;;;;18.68;95.90;93781.13;5090463;28;20450;-73
2022/09/06 07:28:31;;;;;;;8.50;4.45;;;;;;;18.68;97.06;93780.31;5090110;28;20122;-73
2022/09/06 07:30:59;;;;;;;7.45;4.32;;;;;;;18.95;96.51;93776.94;5097019;28;20587;-73
2022/09/06 07:33:26;;;;;;;6.40;4.20;;;;;;;18.98;92.00;93779.03;5108857;28;20071;-73
2022/09/06 07:35:58;;;;;;;6.68;4.30;;;;;;;19.04;90.53;93787.69;5092019;28;20590;-73
2022/09/06 07:38:26;;;;;;;5.47;3.40;;;;;;;18.81;87.30;93795.56;5090428;28;20048;-73
2022/09/06 07:40:54;;;;;;;5.22;3.45;;;;;;;19.23;92.11;93788.09;5090144;28;20506;-73
2022/09/06 07:43:21;;;;;;;8.73;3.63;;;;;;;19.66;90.90;93789.97;5099922;28;20135;-74
2022/09/06 07:45:47;;;;;;;6.18;4.28;;;;;;;20.06;91.51;93777.38;5094431;27;20093;-74
2022/09/06 07:48:14;;;;;;;8.82;3.88;;;;;;;20.50;89.51;93790.03;5089974;28;20522;-74
2022/09/06 07:50:41;;;;;;;4.90;3.67;;;;;;;20.55;79.47;93799.72;5090010;28;20052;-74
2022/09/06 07:53:09;;;;;;;4.65;3.75;;;;;;;20.78;82.25;93795.84;5090121;28;20060;-74
2022/09/06 07:55:37;;;;;;;7.20;3.88;;;;;;;21.10;78.70;93794.06;5089846;28;20044;-74
2022/09/06 07:58:04;;;;;;;6.07;3.72;;;;;;;21.12;78.72;93797.22;5089655;28;20048;-74
2022/09/06 08:00:31;;;;;;;6.22;3.42;;;;;;;21.16;78.61;93785.19;5090076;28;20089;-74
2022/09/06 08:02:58;;;;;;;5.38;3.42;;;;;;;21.26;78.71;93787.03;5089801;28;20044;-74
2022/09/06 08:05:25;;;;;;;5.28;3.80;;;;;;;20.70;75.98;93791.16;5090255;28;20059;-74
2022/09/06 08:07:52;;;;;;;4.40;3.53;;;;;;;21.07;78.80;93790.16;5089624;28;20044;-74
2022/09/06 08:10:19;;;;;;;5.57;3.50;;;;;;;21.09;75.70;93792.50;5089538;28;20051;-74
2022/09/06 08:12:47;;;;;;;5.95;3.83;;;;;;;21.09;77.74;93785.47;5089598;28;20043;-74
2022/09/06 08:15:14;;;;;;;6.22;3.78;;;;;;;21.06;74.90;93790.44;5089484;28;20093;-74
2022/09/06 08:17:40;;;;;;;5.72;3.85;;;;;;;21.22;74.80;93780.75;5089649;28;20418;-74
2022/09/06 08:20:08;;;;;;;5.78;3.85;;;;;;;21.30;76.80;93782.81;5089375;28;20101;-74
2022/09/06 08:22:34;;;;;;;6.40;4.18;;;;;;;21.12;73.46;93785.97;5089696;28;20059;-75
2022/09/06 08:25:01;;;;;;;5.18;3.83;;;;;;;20.89;76.00;93782.84;5089372;28;20048;-74
2022/09/06 08:27:28;;;;;;;5.85;4.47;;;;;;;20.91;72.83;93788.56;5089264;28;20048;-74
2022/09/06 08:29:56;;;;;;;5.65;4.60;;;;;;;21.23;76.27;93771.88;5089107;28;20076;-74
2022/09/06 08:32:23;;;;;;;5.82;4.60;;;;;;;21.58;74.87;93774.69;5092529;28;20097;-74
2022/09/06 08:34:50;;;;;;;7.47;4.30;;;;;;;21.69;70.67;93778.06;5100067;28;20069;-74
2022/09/06 08:37:16;;;;;;;6.63;4.57;;;;;;;21.64;70.38;93768.41;5089550;28;20097;-75
2022/09/06 08:39:43;;;;;;;7.38;4.15;;;;;;;21.68;73.29;93764.22;5089377;28;20086;-74
2022/09/06 08:42:11;;;;;;;5.47;3.72;;;;;;;21.52;73.56;93749.63;5089363;28;20052;-74
2022/09/06 08:44:41;;;;;;;6.60;3.90;;;;;;;21.75;73.72;93759.53;5089008;28;20166;-73
2022/09/06 08:47:11;;;;;;;9.48;4.15;;;;;;;21.36;74.26;93753.06;5089458;28;20044;-74
2022/09/06 08:49:42;;;;;;;9.02;4.57;;;;;;;21.75;77.31;93748.25;5089008;28;20052;-73
2022/09/06 08:52:25;;;;;;;6.63;4.15;;;;;;;22.41;79.94;93749.03;5089330;28;20052;-73
2022/09/06 08:54:59;;;;;;;5.95;4.55;;;;;;;22.98;77.61;93747.91;5089019;28;20511;-74
2022/09/06 08:57:40;;;;;;;9.15;5.28;;;;;;;23.51;74.13;93745.63;5089063;28;20520;-74
2022/09/06 09:00:11;;;;;;;6.45;4.57;;;;;;;23.75;67.52;93745.66;5089283;28;20048;-74
2022/09/06 09:02:45;;;;;;;10.23;6.43;;;;;;;23.38;67.17;93742.63;5089121;28;20393;-74
2022/09/06 09:05:21;;;;;;;8.75;5.32;;;;;;;23.81;72.36;93743.75;5088869;28;20051;-74
2022/09/06 09:08:00;;;;;;;6.05;4.35;;;;;;;24.03;66.43;93736.13;5089147;28;20138;-74
2022/09/06 09:10:29;;;;;;;5.22;4.13;;;;;;;23.96;65.74;93727.81;5088875;28;20499;-74
2022/09/06 09:12:56;;;;;;;6.43;4.60;;;;;;;22.94;69.83;93712.81;5088993;28;20121;-74
2022/09/06 09:15:24;;;;;;;7.90;5.07;;;;;;;23.12;68.58;93716.59;5088991;28;20051;-74
2022/09/06 09:17:53;;;;;;;6.47;4.63;;;;;;;22.65;70.01;93716.19;5089047;28;20105;-74
2022/09/06 09:20:21;;;;;;;6.07;4.35;;;;;;;22.47;68.71;93713.16;5095558;28;20047;-73
2022/09/06 09:22:48;;;;;;;7.65;4.45;;;;;;;22.35;67.92;93713.47;5103198;28;20044;-74
2022/09/06 09:25:20;;;;;;;6.60;4.60;;;;;;;22.72;70.67;93708.03;5105257;28;20043;-74
2022/09/06 09:27:49;;;;;;;5.43;3.90;;;;;;;22.31;66.75;93703.81;5091568;28;20052;-74
2022/09/06 09:30:16;;;;;;;6.93;4.60;;;;;;;22.76;70.31;93699.34;5089879;28;20067;-74
2022/09/06 09:32:45;;;;;;;5.95;4.30;;;;;;;22.75;67.85;93683.91;5094637;28;20136;-74
2022/09/06 09:35:19;;;;;;;5.88;4.43;;;;;;;22.65;69.41;93695.25;5099368;28;20050;-74
2022/09/06 09:37:46;;;;;;;6.10;4.32;;;;;;;22.79;68.40;93695.41;5103968;28;20046;-74
2022/09/06 09:40:15;;;;;;;5.50;4.20;;;;;;;22.60;66.67;93693.47;5088630;28;20048;-74
2022/09/06 09:42:43;;;;;;;7.03;4.35;;;;;;;22.87;68.17;93691.41;5097800;28;20044;-74
2022/09/06 09:45:24;;;;;;;5.68;4.35;;;;;;;23.09;67.92;93690.94;5088661;28;20067;-74
2022/09/06 09:47:51;;;;;;;6.70;4.43;;;;;;;22.88;65.80;93692.97;5091204;28;20048;-74
2022/09/06 09:50:29;;;;;;;6.18;4.45;;;;;;;23.27;67.80;93689.47;5088173;28;20048;-74
2022/09/06 09:52:55;;;;;;;6.47;4.18;;;;;;;23.77;67.54;93691.06;5091109;28;20051;-74
2022/09/06 09:55:25;;;;;;;5.13;4.10;;;;;;;24.13;64.11;93684.63;5088430;28;20090;-75
2022/09/06 09:57:53;;;;;;;5.93;3.97;;;;;;;24.53;62.76;93684.31;5090688;28;20040;-74
2022/09/06 10:00:35;;;;;;;9.25;4.70;;;;;;;25.08;61.66;93670.59;5091897;28;20126;-74
2022/09/06 10:03:12;;;;;;;6.15;3.97;;;;;;;25.57;62.27;93672.88;5091705;28;20416;-75
2022/09/06 10:05:41;;;;;;;6.43;4.05;;;;;;;26.09;59.53;93663.94;5099554;28;20441;-75
2022/09/06 10:08:12;;;;;;;5.68;3.90;;;;;;;26.47;58.83;93660.22;5097589;28;20043;-75
2022/09/06 10:10:42;;;;;;;8.98;4.40;;;;;;;26.68;56.83;93628.16;5091698;28;20051;-75
2022/09/06 10:13:18;;;;;;;6.47;3.88;;;;;;;26.71;52.24;93650.47;5091711;28;20486;-74
2022/09/06 10:15:45;;;;;;;6.18;4.00;;;;;;;26.39;55.17;93647.78;5091671;28;20089;-74
2022/09/06 10:18:17;;;;;;;5.85;3.92;;;;;;;25.18;59.96;93645.19;5092014;28;20105;-74
2022/09/06 10:20:50;;;;;;;5.25;4.10;;;;;;;24.64;60.29;93637.66;5092080;28;20123;-74
2022/09/06 10:23:25;;;;;;;6.30;4.30;;;;;;;24.02;64.47;93645.34;5091932;28;20385;-74
2022/09/06 10:26:00;;;;;;;5.57;3.88;;;;;;;23.79;64.79;93638.34;5090150;28;20451;-74
2022/09/06 10:28:31;;;;;;;;;;;;;;;23.55;65.03;93642.53;5090233;28;20439;-74
2022/09/06 10:31:20;;;;;;;5.60;3.78;;;;;;;22.73;64.64;93642.28;5091483;28;20397;-74
2022/09/06 10:34:02;;;;;;;5.18;4.20;;;;;;;22.38;66.47;93637.03;5105924;28;20420;-75
2022/09/06 10:36:35;;;;;;;5.15;3.83;;;;;;;22.75;69.59;93626.28;5101492;28;20051;-75
2022/09/06 10:39:07;;;;;;;5.82;4.65;;;;;;;22.99;68.53;93639.44;5100885;28;20113;-74
2022/09/06 10:41:53;;;;;;;4.80;3.58;;;;;;;23.12;65.90;93638.00;5104063;28;20043;-75
2022/09/06 10:44:36;;;;;;;5.50;3.97;;;;;;;23.37;64.25;93636.19;5108380;28;20097;-74
2022/09/06 10:47:13;;;;;;;5.20;3.33;;;;;;;23.44;63.59;93635.84;5110938;28;20044;-75
2022/09/06 10:49:53;;;;;;;4.95;3.72;;;;;;;23.67;62.69;93641.34;5109464;28;20059;-76
2022/09/06 10:52:38;;;;;;;6.15;3.90;;;;;;;23.86;63.33;93634.31;5111531;28;20048;-75
2022/09/06 10:55:10;;;;;;;6.75;4.18;;;;;;;24.13;60.69;93624.25;5110716;28;20104;-75
2022/09/06 10:57:44;;;;;;;4.25;3.25;;;;;;;23.99;60.27;93629.41;5095491;28;20057;-74
2022/09/06 11:00:13;;;;;;;4.93;3.17;;;;;;;24.24;61.30;93623.03;5091089;28;20415;-75
2022/09/06 11:02:46;;;;;;;5.47;3.35;;;;;;;24.39;59.98;93618.63;5090902;28;20139;-74
2022/09/06 11:05:19;;;;;;;6.20;3.20;;;;;;;24.23;56.19;93628.56;5090903;28;20134;-74
2022/09/06 11:07:54;;;;;;;5.47;3.30;;;;;;;24.40;58.23;93614.94;5091013;28;20450;-74
2022/09/06 11:10:23;;;;;;;5.28;3.45;;;;;;;25.13;62.26;93611.13;5090554;28;20048;-75
2022/09/06 11:12:54;;;;;;;7.95;3.30;;;;;;;25.04;55.61;93616.28;5090568;28;20500;-75
2022/09/06 11:15:25;;;;;;;5.63;3.47;;;;;;;25.22;55.67;93617.22;5090881;28;20048;-75
2022/09/06 11:17:58;;;;;;;5.10;2.80;;;;;;;24.43;54.73;93622.22;5091283;28;20088;-75
2022/09/06 11:20:31;;;;;;;5.20;3.17;;;;;;;25.04;57.20;93618.91;5090792;28;20449;-74
2022/09/06 11:23:23;;;;;;;3.65;2.85;;;;;;;25.14;55.14;93613.47;5090655;28;20051;-75
2022/09/06 11:26:30;;;;;;;4.03;2.72;;;;;;;25.81;51.38;93605.31;5102321;28;20047;-75
2022/09/06 11:28:59;;;;;;;5.35;2.78;;;;;;;24.51;50.87;93584.81;5096328;28;20048;-75
2022/09/06 11:31:28;;;;;;;5.18;2.63;;;;;;;24.85;50.15;93608.47;5095019;28;20052;-74
2022/09/06 11:34:07;;;;;;;5.07;2.83;;;;;;;25.44;54.77;93606.03;5104633;28;20096;-75
2022/09/06 11:36:38;;;;;;;4.68;2.83;;;;;;;25.66;49.46;93603.78;5090350;28;20056;-75
2022/09/06 11:39:09;;;;;;;6.28;2.60;;;;;;;25.70;50.00;93591.63;5090312;28;20040;-74